Time;durP1;ratioP1;P1;durP2;ratioP2;P2;SDS_P1;SDS_P2;PMS_P1;PMS_P2;Temp;Humidity;BMP_temperature;BMP_pressure;BME280_temperature;BME280_humidity;BME280_pressure;Samples;Min_cycle;Max_cycle;Signal;HPM_P1;HPM_P2
2022/08/03 00:01:28;;;;;;;0.63;0.20;;;25.10;61.60;;;;;;6313177;27;20816;-41
2022/08/03 00:04:30;;;;;;;0.30;0.30;;;25.20;61.70;;;;;;6319219;27;20186;-43
2022/08/03 00:07:39;;;;;;;0.45;0.25;;;25.00;61.60;;;;;;6321832;27;20035;-44
2022/08/03 00:10:41;;;;;;;0.50;0.30;;;25.10;61.90;;;;;;6319261;27;20050;-42
2022/08/03 00:13:43;;;;;;;0.40;0.32;;;25.10;61.90;;;;;;6296607;27;20150;-41
2022/08/03 00:16:45;;;;;;;0.43;0.30;;;25.10;62.00;;;;;;6323570;27;21247;-42
2022/08/03 00:19:46;;;;;;;0.20;0.20;;;25.00;62.10;;;;;;6324500;27;20139;-42
2022/08/03 00:22:49;;;;;;;0.60;0.40;;;25.10;62.20;;;;;;6326848;27;20075;-43
2022/08/03 00:25:50;;;;;;;0.30;0.30;;;25.20;62.30;;;;;;6326549;27;20049;-40
2022/08/03 00:28:52;;;;;;;0.20;0.20;;;25.00;62.30;;;;;;6320986;27;20051;-42
2022/08/03 00:31:54;;;;;;;0.20;0.20;;;25.10;62.40;;;;;;6323032;27;20119;-43
2022/08/03 00:35:02;;;;;;;0.32;0.30;;;25.00;62.50;;;;;;6321781;27;20044;-44
2022/08/03 00:38:10;;;;;;;0.30;0.30;;;25.00;62.50;;;;;;6325467;27;20055;-44
2022/08/03 00:41:11;;;;;;;0.30;0.30;;;25.00;62.50;;;;;;6319723;27;20143;-41
2022/08/03 00:44:16;;;;;;;0.25;0.20;;;24.90;62.60;;;;;;6320476;27;20143;-39
2022/08/03 00:47:18;;;;;;;0.22;0.22;;;24.90;62.70;;;;;;6316555;27;20186;-41
2022/08/03 00:50:22;;;;;;;0.32;0.32;;;25.00;62.90;;;;;;6319421;27;20184;-42
2022/08/03 00:53:24;;;;;;;0.60;0.35;;;24.90;62.90;;;;;;6284775;27;20072;-43
2022/08/03 00:56:26;;;;;;;0.30;0.30;;;25.00;63.00;;;;;;6319471;27;20074;-43
2022/08/03 00:59:29;;;;;;;0.30;0.20;;;24.90;63.10;;;;;;6318672;27;20389;-41
2022/08/03 01:02:34;;;;;;;0.30;0.22;;;24.90;63.20;;;;;;6299608;27;20651;-40
2022/08/03 01:05:44;;;;;;;0.40;0.20;;;25.00;63.30;;;;;;6291196;27;20409;-40
2022/08/03 01:08:53;;;;;;;0.50;0.40;;;25.00;63.40;;;;;;6311154;27;20047;-42
2022/08/03 01:12:03;;;;;;;0.20;0.20;;;24.90;63.40;;;;;;6279179;27;20050;-40
2022/08/03 01:15:10;;;;;;;0.50;0.22;;;24.80;63.40;;;;;;6290302;27;20436;-40
2022/08/03 01:18:17;;;;;;;0.30;0.30;;;24.80;63.50;;;;;;6309383;27;20652;-40
2022/08/03 01:21:26;;;;;;;0.30;0.30;;;24.80;63.60;;;;;;6308909;27;20289;-40
2022/08/03 01:24:40;;;;;;;0.20;0.20;;;24.90;63.70;;;;;;6310636;27;20121;-40
2022/08/03 01:27:53;;;;;;;0.38;0.25;;;24.90;63.80;;;;;;6307157;27;20363;-39
2022/08/03 01:30:59;;;;;;;0.40;0.30;;;24.80;63.80;;;;;;6305333;27;20230;-40
2022/08/03 01:34:05;;;;;;;0.47;0.30;;;24.70;63.80;;;;;;6290714;27;20396;-42
2022/08/03 01:37:15;;;;;;;0.20;0.20;;;24.80;63.80;;;;;;6290399;27;20469;-43
2022/08/03 01:40:18;;;;;;;0.20;0.20;;;24.80;63.90;;;;;;6314497;27;20522;-41
2022/08/03 01:43:26;;;;;;;0.50;0.30;;;24.80;64.00;;;;;;6309827;27;20126;-41
2022/08/03 01:46:50;;;;;;;0.35;0.35;;;24.80;64.00;;;;;;6293734;27;20460;-41
2022/08/03 01:49:52;;;;;;;0.47;0.32;;;24.70;64.00;;;;;;6313025;27;20039;-42
2022/08/03 01:52:57;;;;;;;0.30;0.30;;;24.80;64.00;;;;;;6316086;27;20775;-40
2022/08/03 01:56:01;;;;;;;0.32;0.20;;;24.70;64.00;;;;;;6294359;27;20134;-40
2022/08/03 01:59:04;;;;;;;0.77;0.20;;;24.70;64.10;;;;;;6319194;27;20193;-40
2022/08/03 02:02:07;;;;;;;0.17;0.17;;;24.80;64.10;;;;;;6311064;27;20199;-42
2022/08/03 02:05:30;;;;;;;0.47;0.22;;;24.60;64.10;;;;;;6291265;27;20460;-41
2022/08/03 02:08:33;;;;;;;0.35;0.30;;;24.70;64.10;;;;;;6292552;27;20642;-40
2022/08/03 02:11:37;;;;;;;0.30;0.22;;;24.70;64.10;;;;;;6309210;27;20038;-40
2022/08/03 02:14:40;;;;;;;0.30;0.30;;;24.70;64.50;;;;;;6307245;27;20980;-42
2022/08/03 02:17:44;;;;;;;0.25;0.25;;;24.70;64.20;;;;;;6310132;27;20184;-42
2022/08/03 02:20:46;;;;;;;0.45;0.20;;;24.70;64.30;;;;;;6312786;27;20069;-40
2022/08/03 02:23:48;;;;;;;0.50;0.30;;;24.70;64.30;;;;;;6311308;27;20593;-40
2022/08/03 02:26:52;;;;;;;0.60;0.38;;;24.70;64.30;;;;;;6293512;27;20570;-40
2022/08/03 02:30:00;;;;;;;0.68;0.30;;;24.80;64.40;;;;;;6310764;27;20519;-40
2022/08/03 02:33:03;;;;;;;0.22;0.22;;;24.70;64.40;;;;;;6292624;27;20078;-43
2022/08/03 02:36:06;;;;;;;0.68;0.50;;;24.60;64.30;;;;;;6292200;27;20079;-40
2022/08/03 02:39:12;;;;;;;0.32;0.22;;;24.70;64.50;;;;;;6307596;27;20380;-41
2022/08/03 02:42:18;;;;;;;0.40;0.30;;;24.80;64.60;;;;;;6309235;27;20063;-40
2022/08/03 02:45:24;;;;;;;0.40;0.40;;;24.70;64.50;;;;;;6300924;27;20161;-39
2022/08/03 02:48:29;;;;;;;1.00;0.30;;;24.70;64.50;;;;;;6314169;27;20557;-43
2022/08/03 02:51:35;;;;;;;0.30;0.30;;;24.70;64.50;;;;;;6294367;27;20075;-40
2022/08/03 02:54:38;;;;;;;0.38;0.32;;;24.60;64.50;;;;;;6293126;27;20087;-41
2022/08/03 02:57:41;;;;;;;0.20;0.20;;;24.70;64.50;;;;;;6293754;27;20150;-40
2022/08/03 03:00:44;;;;;;;0.43;0.30;;;24.70;64.40;;;;;;6308693;27;20276;-41
2022/08/03 03:03:48;;;;;;;0.40;0.40;;;24.80;64.50;;;;;;6275193;27;20035;-42
2022/08/03 03:06:50;;;;;;;0.40;0.40;;;24.70;64.40;;;;;;6311508;27;20481;-40
2022/08/03 03:09:53;;;;;;;0.20;0.20;;;24.60;64.30;;;;;;6316119;27;20690;-41
2022/08/03 03:12:57;;;;;;;0.52;0.20;;;24.90;64.50;;;;;;6319142;27;20035;-40
2022/08/03 03:16:01;;;;;;;0.75;0.30;;;24.80;64.50;;;;;;6298730;27;20074;-40
2022/08/03 03:19:04;;;;;;;1.08;0.25;;;24.70;64.40;;;;;;6318403;27;20038;-40
2022/08/03 03:22:07;;;;;;;0.50;0.30;;;24.70;64.40;;;;;;6320898;27;20087;-40
2022/08/03 03:25:09;;;;;;;0.60;0.30;;;24.80;64.50;;;;;;6299564;27;20249;-39
2022/08/03 03:28:11;;;;;;;0.63;0.30;;;24.80;64.50;;;;;;6309908;27;20194;-43
2022/08/03 03:31:13;;;;;;;3.17;0.43;;;24.80;64.60;;;;;;6310848;27;20843;-39
2022/08/03 03:34:15;;;;;;;0.52;0.40;;;24.70;64.60;;;;;;6323259;27;20041;-39
2022/08/03 03:37:17;;;;;;;1.48;0.38;;;24.80;64.70;;;;;;6320345;27;20039;-41
2022/08/03 03:40:19;;;;;;;1.38;0.32;;;24.70;64.60;;;;;;6322058;27;20942;-41
2022/08/03 03:43:22;;;;;;;0.93;0.20;;;24.80;64.70;;;;;;6321877;27;20945;-39
2022/08/03 03:46:24;;;;;;;0.50;0.35;;;24.80;64.70;;;;;;6323854;27;20043;-40
2022/08/03 03:49:26;;;;;;;0.30;0.30;;;24.70;64.70;;;;;;6325908;27;20066;-42
2022/08/03 03:52:28;;;;;;;1.08;0.30;;;24.80;64.70;;;;;;6325495;27;20050;-39
2022/08/03 03:55:30;;;;;;;0.30;0.25;;;24.80;64.70;;;;;;6327053;27;20106;-43
2022/08/03 03:58:32;;;;;;;0.30;0.30;;;24.70;65.30;;;;;;6323533;27;21311;-42
2022/08/03 04:01:34;;;;;;;0.40;0.30;;;24.80;64.70;;;;;;6327666;27;20034;-40
2022/08/03 04:11:19;;;;;;;0.30;0.20;;;24.70;64.70;;;;;;6306921;27;20039;-43
2022/08/03 04:14:38;;;;;;;0.50;0.20;;;24.70;64.70;;;;;;6325319;27;20809;-40
2022/08/03 04:17:40;;;;;;;0.40;0.20;;;24.80;64.70;;;;;;6307045;27;20059;-40
2022/08/03 04:20:46;;;;;;;0.30;0.20;;;24.70;64.70;;;;;;6321715;27;20957;-40
2022/08/03 04:23:54;;;;;;;0.28;0.20;;;24.70;64.70;;;;;;6324352;27;20078;-40
2022/08/03 04:26:56;;;;;;;0.20;0.20;;;24.70;64.70;;;;;;6305916;27;20043;-42
2022/08/03 04:30:01;;;;;;;0.20;0.20;;;24.70;64.60;;;;;;6322141;27;20158;-41
2022/08/03 04:33:03;;;;;;;0.57;0.30;;;24.70;64.60;;;;;;6313184;27;20042;-40
2022/08/03 04:36:08;;;;;;;0.22;0.20;;;24.70;64.60;;;;;;6324207;27;20913;-39
2022/08/03 04:39:13;;;;;;;0.38;0.30;;;24.70;64.60;;;;;;6302168;27;20205;-40
2022/08/03 04:42:15;;;;;;;0.63;0.20;;;24.70;64.60;;;;;;6303513;27;21009;-39
2022/08/03 04:45:18;;;;;;;0.50;0.50;;;24.70;64.60;;;;;;6323342;27;20042;-40
2022/08/03 04:48:20;;;;;;;0.28;0.20;;;24.70;64.60;;;;;;6321752;27;20034;-40
2022/08/03 04:51:23;;;;;;;0.40;0.20;;;24.70;64.60;;;;;;6321534;27;20119;-40
2022/08/03 04:54:24;;;;;;;0.30;0.20;;;24.80;64.70;;;;;;6302298;27;20856;-39
2022/08/03 04:57:26;;;;;;;0.25;0.22;;;24.80;64.70;;;;;;6325389;27;20103;-42
2022/08/03 05:00:28;;;;;;;0.35;0.20;;;24.70;64.70;;;;;;6305676;27;20089;-39
2022/08/03 05:03:31;;;;;;;0.25;0.20;;;24.70;64.60;;;;;;6319692;27;20043;-41
2022/08/03 05:06:33;;;;;;;1.35;0.32;;;24.80;64.70;;;;;;6316849;27;20126;-39
2022/08/03 05:09:37;;;;;;;0.30;0.13;;;24.70;64.60;;;;;;6319963;27;20036;-39
2022/08/03 05:12:54;;;;;;;0.30;0.30;;;24.80;64.70;;;;;;6319757;27;20067;-40
2022/08/03 05:15:56;;;;;;;0.17;0.17;;;24.80;64.70;;;;;;6318822;27;20173;-42
2022/08/03 05:18:57;;;;;;;0.35;0.20;;;24.70;64.60;;;;;;6321342;27;20066;-41
2022/08/03 05:22:00;;;;;;;0.20;0.20;;;24.90;64.70;;;;;;6317446;27;20101;-41
2022/08/03 05:25:01;;;;;;;0.20;0.20;;;24.80;64.70;;;;;;6322396;27;20079;-41
2022/08/03 05:28:03;;;;;;;0.40;0.30;;;24.80;64.70;;;;;;6317660;27;21616;-39
2022/08/03 05:31:05;;;;;;;0.40;0.28;;;24.80;64.70;;;;;;6317741;27;20055;-41
2022/08/03 05:34:06;;;;;;;0.22;0.20;;;24.70;64.70;;;;;;6319321;27;20137;-39
2022/08/03 05:37:09;;;;;;;0.30;0.30;;;24.80;64.70;;;;;;6300331;27;20122;-41
2022/08/03 05:40:11;;;;;;;0.35;0.30;;;24.80;64.70;;;;;;6302386;27;20042;-41
2022/08/03 05:43:16;;;;;;;0.35;0.35;;;24.70;64.70;;;;;;6318622;27;20039;-39
2022/08/03 05:46:21;;;;;;;0.22;0.20;;;24.70;64.70;;;;;;6317204;27;21029;-39
2022/08/03 05:49:22;;;;;;;0.57;0.28;;;24.80;64.80;;;;;;6303452;27;20057;-39
2022/08/03 05:52:24;;;;;;;0.47;0.40;;;24.70;64.70;;;;;;6312995;27;22382;-39
2022/08/03 05:55:26;;;;;;;0.20;0.20;;;24.80;64.70;;;;;;6310430;27;20059;-39
2022/08/03 05:58:28;;;;;;;0.30;0.30;;;24.80;64.70;;;;;;6308754;27;20158;-41
2022/08/03 06:01:32;;;;;;;0.82;0.45;;;24.80;64.70;;;;;;6310135;27;21000;-40
2022/08/03 06:04:33;;;;;;;0.68;0.32;;;24.80;64.80;;;;;;6313847;27;20042;-39
2022/08/03 06:07:35;;;;;;;0.38;0.30;;;24.90;64.80;;;;;;6301096;27;20164;-41
2022/08/03 06:10:37;;;;;;;0.40;0.40;;;24.80;64.70;;;;;;6306465;27;20039;-41
2022/08/03 06:13:40;;;;;;;0.28;0.20;;;24.80;64.70;;;;;;6317864;27;20892;-40
2022/08/03 06:16:42;;;;;;;0.40;0.35;;;24.80;64.70;;;;;;6305813;27;20043;-39
2022/08/03 06:19:43;;;;;;;0.70;0.30;;;24.90;64.70;;;;;;6308649;27;20082;-39
2022/08/03 06:22:45;;;;;;;0.30;0.30;;;24.80;64.70;;;;;;6302211;27;20031;-41
2022/08/03 06:26:01;;;;;;;0.30;0.30;;;24.80;64.90;;;;;;6308225;27;20043;-39
2022/08/03 06:29:03;;;;;;;0.52;0.30;;;24.80;64.70;;;;;;6292854;27;20112;-39
2022/08/03 06:32:05;;;;;;;0.30;0.30;;;24.90;64.80;;;;;;6310166;27;20039;-39
2022/08/03 06:35:08;;;;;;;0.30;0.30;;;24.90;64.90;;;;;;6308802;27;20045;-39
2022/08/03 06:38:11;;;;;;;0.32;0.30;;;24.70;64.70;;;;;;6284904;27;21306;-39
2022/08/03 06:41:13;;;;;;;1.05;0.40;;;24.80;64.80;;;;;;6294955;27;20053;-39
2022/08/03 06:44:15;;;;;;;3.97;0.90;;;24.90;64.80;;;;;;6293832;27;20038;-41
2022/08/03 06:47:16;;;;;;;2.35;0.65;;;24.90;64.90;;;;;;6288959;27;20149;-42
2022/08/03 06:50:18;;;;;;;3.38;0.98;;;25.00;65.10;;;;;;6287348;27;20127;-39
2022/08/03 06:53:26;;;;;;;2.10;0.60;;;24.80;65.10;;;;;;6289584;27;20150;-40
2022/08/03 06:56:27;;;;;;;2.00;1.80;;;24.90;65.30;;;;;;6282792;27;20039;-40
2022/08/03 06:59:29;;;;;;;2.40;1.42;;;24.80;65.30;;;;;;6251758;27;20058;-42
2022/08/03 07:02:50;;;;;;;5.18;1.75;;;24.60;65.50;;;;;;6220495;27;20101;-41
2022/08/03 07:05:59;;;;;;;3.25;1.52;;;24.60;65.80;;;;;;6239297;27;20131;-43
2022/08/03 07:09:01;;;;;;;2.50;1.50;;;24.70;66.00;;;;;;6236115;27;20047;-42
2022/08/03 07:12:05;;;;;;;3.22;1.70;;;24.70;66.20;;;;;;6232968;27;20094;-43
2022/08/03 07:15:08;;;;;;;5.05;1.65;;;24.60;66.30;;;;;;6256893;27;20146;-50
2022/08/03 07:18:22;;;;;;;5.35;1.90;;;24.70;66.40;;;;;;6234088;27;20087;-44
2022/08/03 07:21:31;;;;;;;4.40;1.85;;;24.70;66.40;;;;;;6252248;27;20046;-46
2022/08/03 07:24:34;;;;;;;6.10;1.58;;;24.80;66.70;;;;;;6248781;27;20149;-44
2022/08/03 07:27:37;;;;;;;3.17;1.55;;;24.70;66.60;;;;;;6261711;27;20332;-46
2022/08/03 07:30:38;;;;;;;2.35;1.90;;;24.90;66.70;;;;;;6247692;27;20051;-42
2022/08/03 07:33:40;;;;;;;1.67;1.25;;;24.70;66.70;;;;;;6247465;27;20049;-41
2022/08/03 07:36:41;;;;;;;2.13;1.30;;;24.70;66.70;;;;;;6248907;27;20051;-41
2022/08/03 07:39:43;;;;;;;2.35;1.20;;;24.80;66.80;;;;;;6236623;27;20051;-41
2022/08/03 07:42:45;;;;;;;1.70;1.10;;;24.80;66.70;;;;;;6240760;27;20049;-44
2022/08/03 07:45:47;;;;;;;2.85;1.20;;;24.80;66.70;;;;;;6229764;27;20165;-42
2022/08/03 07:48:49;;;;;;;2.97;1.50;;;24.80;66.60;;;;;;6235596;27;20042;-42
2022/08/03 07:55:08;;;;;;;4.50;1.73;;;24.90;66.50;;;;;;6210032;27;20046;-42
2022/08/03 07:58:14;;;;;;;2.28;1.42;;;24.90;66.50;;;;;;6224444;27;20055;-42
2022/08/03 08:01:18;;;;;;;3.38;1.35;;;24.80;66.50;;;;;;6201756;27;20043;-42
2022/08/03 08:04:20;;;;;;;3.63;1.35;;;24.90;66.60;;;;;;6219982;27;20131;-41
2022/08/03 08:07:21;;;;;;;2.28;1.25;;;24.90;66.70;;;;;;6219043;27;20043;-42
2022/08/03 08:10:23;;;;;;;1.45;0.82;;;24.90;66.40;;;;;;6236230;27;20046;-41
2022/08/03 08:13:25;;;;;;;3.97;1.20;;;25.00;65.60;;;;;;6234491;27;20035;-43
2022/08/03 08:16:27;;;;;;;2.88;1.20;;;25.10;66.10;;;;;;6208333;27;20144;-40
2022/08/03 08:19:29;;;;;;;1.70;1.20;;;25.10;66.10;;;;;;6239979;27;20087;-44
2022/08/03 08:22:34;;;;;;;0.70;0.70;;;25.10;66.00;;;;;;6231145;27;20934;-45
2022/08/03 08:25:36;;;;;;;3.10;1.02;;;25.10;65.90;;;;;;6245327;27;20043;-43
2022/08/03 08:28:38;;;;;;;1.77;1.05;;;25.10;65.70;;;;;;6250145;27;20238;-41
2022/08/03 08:31:39;;;;;;;1.05;0.82;;;25.20;65.70;;;;;;6234257;27;20045;-42
2022/08/03 08:34:41;;;;;;;3.85;1.10;;;25.20;65.50;;;;;;6231424;27;20057;-43
2022/08/03 08:37:43;;;;;;;1.42;0.80;;;25.30;65.30;;;;;;6243767;27;20068;-43
2022/08/03 08:40:55;;;;;;;0.90;0.82;;;25.00;64.90;;;;;;6212795;27;20097;-43
2022/08/03 08:43:57;;;;;;;2.13;1.00;;;25.20;64.90;;;;;;6216862;27;20051;-46
2022/08/03 08:47:02;;;;;;;1.13;0.88;;;25.30;64.80;;;;;;6237490;27;20074;-46
2022/08/03 08:50:06;;;;;;;1.63;0.90;;;25.30;64.80;;;;;;6239801;27;20049;-44
2022/08/03 08:53:29;;;;;;;2.17;0.80;;;25.30;64.80;;;;;;6212627;27;20038;-41
2022/08/03 08:56:32;;;;;;;1.73;0.63;;;25.30;65.00;;;;;;6235436;27;20043;-40
2022/08/03 08:59:35;;;;;;;1.27;0.90;;;25.40;65.20;;;;;;6218988;27;20053;-42
2022/08/03 09:02:50;;;;;;;1.52;0.70;;;25.40;65.20;;;;;;6238325;27;20656;-42
2022/08/03 09:05:53;;;;;;;3.42;1.33;;;25.40;65.20;;;;;;6218845;27;20043;-45
2022/08/03 09:08:57;;;;;;;4.35;0.88;;;25.40;65.20;;;;;;6220470;27;20045;-42
2022/08/03 09:11:59;;;;;;;2.88;0.88;;;25.30;65.10;;;;;;6223923;27;25874;-43
2022/08/03 09:15:24;;;;;;;2.72;1.50;;;25.50;65.20;;;;;;6196546;27;20046;-42
2022/08/03 09:18:28;;;;;;;1.67;0.80;;;25.50;65.10;;;;;;6246771;27;20061;-43
2022/08/03 09:21:38;;;;;;;3.00;0.90;;;25.50;65.10;;;;;;6234193;27;20115;-45
2022/08/03 09:24:56;;;;;;;4.70;0.77;;;25.50;64.90;;;;;;6221892;27;20047;-43
2022/08/03 09:28:19;;;;;;;2.00;1.08;;;25.50;65.00;;;;;;6202581;27;21192;-39
2022/08/03 09:31:43;;;;;;;2.20;1.10;;;25.50;64.90;;;;;;6204914;27;20039;-44
2022/08/03 09:34:47;;;;;;;2.25;1.02;;;25.40;64.80;;;;;;6210080;27;20042;-42
2022/08/03 09:38:10;;;;;;;3.03;0.68;;;25.60;65.00;;;;;;6218007;27;20187;-41
2022/08/03 09:41:18;;;;;;;7.55;1.30;;;25.40;65.00;;;;;;6179338;27;20050;-44
2022/08/03 09:44:34;;;;;;;2.55;1.17;;;25.60;65.10;;;;;;6241224;27;20177;-43
2022/08/03 09:47:36;;;;;;;2.50;1.10;;;25.50;65.00;;;;;;6230370;27;20091;-45
2022/08/03 09:50:47;;;;;;;3.67;1.17;;;25.60;65.10;;;;;;6235934;27;20061;-40
2022/08/03 09:54:09;;;;;;;;;;;25.50;65.00;;;;;;6189256;27;21390;-43
2022/08/03 09:57:23;;;;;;;1.80;0.63;;;25.60;65.00;;;;;;6244095;27;20061;-45
2022/08/03 10:00:25;;;;;;;2.42;1.00;;;25.60;65.00;;;;;;6232346;27;21493;-44
2022/08/03 10:03:29;;;;;;;1.88;0.85;;;25.60;65.00;;;;;;6226979;27;27782;-43
2022/08/03 10:06:31;;;;;;;2.58;1.00;;;25.60;65.00;;;;;;6216838;27;20078;-45
2022/08/03 10:09:33;;;;;;;2.17;1.17;;;25.50;65.00;;;;;;6239333;27;20043;-43
2022/08/03 10:12:34;;;;;;;3.28;1.08;;;25.60;65.00;;;;;;6253468;27;20087;-42
2022/08/03 10:15:38;;;;;;;2.80;1.17;;;25.50;64.90;;;;;;6245824;27;20046;-40
2022/08/03 10:19:00;;;;;;;3.80;1.63;;;25.60;64.80;;;;;;6223312;27;20062;-43
2022/08/03 10:22:06;;;;;;;2.08;1.35;;;25.60;64.80;;;;;;6252865;27;20153;-39
2022/08/03 10:25:10;;;;;;;1.75;1.05;;;25.70;64.70;;;;;;6255000;27;21614;-40
2022/08/03 10:28:17;;;;;;;2.88;0.90;;;25.60;64.40;;;;;;6270445;27;20136;-39
2022/08/03 10:31:22;;;;;;;2.55;0.90;;;25.60;64.30;;;;;;6244196;27;20039;-40
2022/08/03 10:34:28;;;;;;;1.90;1.13;;;25.60;64.20;;;;;;6250487;27;20039;-39
2022/08/03 10:37:33;;;;;;;1.60;0.75;;;25.70;64.20;;;;;;6257034;27;20035;-40
2022/08/03 10:40:37;;;;;;;1.80;0.80;;;25.80;64.20;;;;;;6267906;27;20042;-39
2022/08/03 10:43:57;;;;;;;1.92;1.20;;;25.60;64.00;;;;;;6273422;27;20072;-42
2022/08/03 10:47:00;;;;;;;3.83;1.00;;;25.60;64.10;;;;;;6252521;27;21109;-40
2022/08/03 10:50:02;;;;;;;2.50;1.10;;;25.60;64.00;;;;;;6281925;27;20151;-41
2022/08/03 10:53:06;;;;;;;1.85;0.90;;;25.70;64.10;;;;;;6281744;27;21308;-39
2022/08/03 10:59:58;;;;;;;1.38;0.70;;;25.60;64.00;;;;;;6246381;27;22021;-40
2022/08/03 11:03:03;;;;;;;1.00;0.63;;;25.70;64.00;;;;;;6276235;27;20176;-42
2022/08/03 11:06:17;;;;;;;1.63;1.23;;;25.60;63.90;;;;;;6245617;27;20075;-39
2022/08/03 11:09:19;;;;;;;0.75;0.52;;;25.70;64.10;;;;;;6241516;27;20047;-39
2022/08/03 11:12:23;;;;;;;3.85;0.90;;;25.70;64.10;;;;;;6281408;27;20075;-42
2022/08/03 11:15:34;;;;;;;2.78;1.27;;;25.70;64.30;;;;;;6275047;27;20046;-40
2022/08/03 11:18:55;;;;;;;3.85;1.50;;;25.60;64.40;;;;;;6260708;27;20115;-41
2022/08/03 11:21:58;;;;;;;2.97;1.25;;;25.50;64.50;;;;;;6275873;27;20042;-39
2022/08/03 11:25:03;;;;;;;3.97;1.60;;;25.70;64.60;;;;;;6260696;27;26516;-42
2022/08/03 11:28:27;;;;;;;1.98;1.70;;;25.90;64.90;;;;;;6270894;27;20119;-40
2022/08/03 11:31:47;;;;;;;2.15;1.50;;;25.80;64.90;;;;;;6236316;27;20087;-40
2022/08/03 11:35:08;;;;;;;2.08;1.73;;;25.70;64.80;;;;;;6266034;27;22083;-40
2022/08/03 11:38:11;;;;;;;2.88;1.40;;;25.70;64.80;;;;;;6252065;27;20035;-42
2022/08/03 11:41:32;;;;;;;1.83;1.30;;;25.80;64.90;;;;;;6229143;27;20049;-39
2022/08/03 11:44:44;;;;;;;3.30;1.40;;;25.70;65.00;;;;;;6244840;27;20050;-43
2022/08/03 11:47:52;;;;;;;5.10;1.40;;;25.80;64.50;;;;;;6247180;27;20046;-41
2022/08/03 11:50:55;;;;;;;1.92;0.80;;;25.70;65.30;;;;;;6249324;27;20047;-44
2022/08/03 11:54:02;;;;;;;1.38;0.95;;;25.70;65.40;;;;;;6256016;27;20122;-40
2022/08/03 11:57:04;;;;;;;1.35;1.00;;;25.80;65.50;;;;;;6225172;27;20057;-45
2022/08/03 12:00:20;;;;;;;1.05;0.82;;;25.70;65.60;;;;;;6249875;27;20047;-44
2022/08/03 12:03:22;;;;;;;0.90;0.80;;;25.80;65.70;;;;;;6178925;27;20071;-42
2022/08/03 12:06:24;;;;;;;0.75;0.75;;;25.80;65.70;;;;;;6199536;27;21335;-42
2022/08/03 12:09:26;;;;;;;4.13;1.00;;;25.80;65.60;;;;;;6223944;27;20043;-38
2022/08/03 12:12:27;;;;;;;1.13;0.80;;;25.80;65.60;;;;;;6228572;27;20711;-44
2022/08/03 12:15:32;;;;;;;0.82;0.63;;;25.80;65.40;;;;;;6225187;27;20046;-42
2022/08/03 12:18:35;;;;;;;1.23;0.70;;;25.70;65.00;;;;;;6213203;27;20046;-41
2022/08/03 12:21:46;;;;;;;0.70;0.60;;;25.70;64.70;;;;;;6223162;27;20043;-45
2022/08/03 12:24:58;;;;;;;0.70;0.70;;;25.70;64.50;;;;;;6214874;27;20042;-43
2022/08/03 12:28:17;;;;;;;0.93;0.57;;;25.80;64.30;;;;;;6237086;27;20034;-41
2022/08/03 12:31:38;;;;;;;0.80;0.50;;;25.90;64.90;;;;;;6231317;27;21939;-53
2022/08/03 12:34:48;;;;;;;0.50;0.50;;;25.90;64.10;;;;;;6224933;27;21397;-41
2022/08/03 12:37:51;;;;;;;0.85;0.63;;;25.90;64.00;;;;;;6224358;27;20157;-40
2022/08/03 12:40:58;;;;;;;0.63;0.60;;;25.80;63.80;;;;;;6235519;27;20217;-41
2022/08/03 12:44:02;;;;;;;1.63;0.65;;;25.90;63.60;;;;;;6240802;27;20166;-39
2022/08/03 12:47:05;;;;;;;0.98;0.60;;;25.80;63.50;;;;;;6243801;27;20157;-41
2022/08/03 12:50:22;;;;;;;0.93;0.55;;;25.80;63.50;;;;;;6254823;27;21982;-39
2022/08/03 12:53:29;;;;;;;0.60;0.60;;;25.80;63.50;;;;;;6244864;27;20046;-41
2022/08/03 12:56:30;;;;;;;0.40;0.40;;;25.90;63.50;;;;;;6221464;27;21463;-40
2022/08/03 12:59:33;;;;;;;0.70;0.52;;;25.60;63.20;;;;;;6258341;27;20177;-39
2022/08/03 13:02:42;;;;;;;0.68;0.60;;;25.90;63.40;;;;;;6228748;27;20051;-40
2022/08/03 13:05:47;;;;;;;2.17;0.60;;;25.90;63.30;;;;;;6215392;27;20038;-41
2022/08/03 13:09:00;;;;;;;0.73;0.52;;;25.80;63.10;;;;;;6237514;27;20039;-41
2022/08/03 13:12:06;;;;;;;0.40;0.30;;;25.80;63.00;;;;;;6183270;27;20046;-40
2022/08/03 13:15:09;;;;;;;0.70;0.57;;;25.80;62.80;;;;;;6222878;27;20157;-39
2022/08/03 13:18:12;;;;;;;0.73;0.43;;;25.80;62.70;;;;;;6232621;27;20043;-41
2022/08/03 13:21:20;;;;;;;0.65;0.50;;;25.90;62.70;;;;;;6220524;27;26729;-39
2022/08/03 13:24:22;;;;;;;0.80;0.60;;;25.80;62.40;;;;;;6208547;27;21355;-40
2022/08/03 13:27:24;;;;;;;0.93;0.55;;;25.80;62.40;;;;;;6220995;27;20046;-39
2022/08/03 13:30:46;;;;;;;0.75;0.50;;;25.80;62.20;;;;;;6223543;27;20043;-39
2022/08/03 13:33:47;;;;;;;0.63;0.40;;;25.70;62.10;;;;;;6235084;27;20107;-39
2022/08/03 13:36:49;;;;;;;0.77;0.50;;;25.80;62.10;;;;;;6216777;27;20083;-39
2022/08/03 13:40:11;;;;;;;0.52;0.30;;;25.80;62.00;;;;;;6214053;27;20039;-39
2022/08/03 13:43:16;;;;;;;1.10;0.50;;;25.80;61.90;;;;;;6219380;27;21376;-39
2022/08/03 13:46:19;;;;;;;0.43;0.40;;;25.80;61.70;;;;;;6199608;27;20149;-41
2022/08/03 13:49:21;;;;;;;0.50;0.40;;;25.70;61.50;;;;;;6222469;27;20135;-41
2022/08/03 13:52:22;;;;;;;0.52;0.50;;;25.80;61.40;;;;;;6220205;27;20039;-39
2022/08/03 13:55:24;;;;;;;0.40;0.40;;;25.80;61.30;;;;;;6225764;27;20632;-39
2022/08/03 13:58:26;;;;;;;0.40;0.40;;;25.80;61.20;;;;;;6251467;27;20035;-42
2022/08/03 14:01:28;;;;;;;1.33;0.50;;;25.70;61.00;;;;;;6243085;27;20050;-40
2022/08/03 14:04:49;;;;;;;1.20;0.40;;;25.80;61.10;;;;;;6233679;27;20044;-40
2022/08/03 14:07:51;;;;;;;0.85;0.40;;;25.80;60.80;;;;;;6256238;27;20038;-42
2022/08/03 14:10:58;;;;;;;0.65;0.40;;;25.80;60.70;;;;;;6255530;27;20043;-42
2022/08/03 14:14:00;;;;;;;0.35;0.30;;;25.70;60.20;;;;;;6259241;27;22199;-40
2022/08/03 14:17:01;;;;;;;0.40;0.32;;;25.80;60.00;;;;;;6249884;27;20166;-41
2022/08/03 14:20:05;;;;;;;1.55;0.65;;;25.80;59.70;;;;;;6243520;27;20111;-42
2022/08/03 14:23:27;;;;;;;1.20;0.40;;;25.90;59.50;;;;;;6231305;27;20039;-40
2022/08/03 14:26:30;;;;;;;2.13;0.60;;;25.80;59.40;;;;;;6232189;27;27626;-41
2022/08/03 14:29:31;;;;;;;0.30;0.30;;;25.80;59.20;;;;;;6240348;27;20051;-41
2022/08/03 14:32:33;;;;;;;0.50;0.30;;;25.90;59.20;;;;;;6241151;27;20053;-39
2022/08/03 14:35:34;;;;;;;0.55;0.35;;;25.90;59.10;;;;;;6234365;27;20297;-42
2022/08/03 14:38:36;;;;;;;0.25;0.20;;;25.80;58.70;;;;;;6226288;27;25839;-43
2022/08/03 14:41:38;;;;;;;0.20;0.20;;;25.90;58.70;;;;;;6253161;27;25162;-40
2022/08/03 14:44:40;;;;;;;0.30;0.20;;;25.90;58.40;;;;;;6240852;27;25273;-42
2022/08/03 14:47:41;;;;;;;0.25;0.22;;;25.90;58.10;;;;;;6244445;27;20038;-41
2022/08/03 14:51:04;;;;;;;0.52;0.38;;;25.90;57.80;;;;;;6218367;27;29305;-40
2022/08/03 14:54:05;;;;;;;1.58;0.20;;;25.90;57.70;;;;;;6246772;27;20084;-41
2022/08/03 14:57:07;;;;;;;0.60;0.40;;;25.90;57.40;;;;;;6246819;27;20046;-41
2022/08/03 15:00:10;;;;;;;0.30;0.22;;;25.80;57.80;;;;;;6243129;27;20110;-40
2022/08/03 15:03:11;;;;;;;0.32;0.20;;;25.90;57.10;;;;;;6245942;27;20058;-43
2022/08/03 15:06:18;;;;;;;0.40;0.20;;;25.80;57.00;;;;;;6245533;27;26235;-40
2022/08/03 15:09:19;;;;;;;0.57;0.40;;;25.80;57.00;;;;;;6266386;27;20134;-42
2022/08/03 15:12:25;;;;;;;0.80;0.65;;;25.80;56.90;;;;;;6264973;27;20039;-42
2022/08/03 15:15:27;;;;;;;1.13;0.40;;;25.90;56.90;;;;;;6264409;27;20146;-40
2022/08/03 15:18:29;;;;;;;0.13;0.13;;;25.90;56.80;;;;;;6262706;27;20049;-39
2022/08/03 15:21:31;;;;;;;0.47;0.30;;;25.90;56.70;;;;;;6258438;27;20165;-41
2022/08/03 15:24:49;;;;;;;0.20;0.20;;;25.90;56.60;;;;;;6249852;27;25167;-40
2022/08/03 15:27:51;;;;;;;0.73;0.20;;;26.00;57.10;;;;;;6236835;27;21668;-41
2022/08/03 15:31:05;;;;;;;0.40;0.30;;;26.00;56.30;;;;;;6223483;27;20077;-41
2022/08/03 15:34:07;;;;;;;0.20;0.20;;;26.00;56.20;;;;;;6253336;27;20059;-41
2022/08/03 15:37:08;;;;;;;0.20;0.20;;;26.10;56.10;;;;;;6238971;27;20043;-41
2022/08/03 15:40:18;;;;;;;0.28;0.28;;;26.50;56.30;;;;;;6252446;27;20045;-44
2022/08/03 15:43:20;;;;;;;0.20;0.15;;;26.00;55.70;;;;;;6265108;27;20046;-41
2022/08/03 15:46:22;;;;;;;0.40;0.30;;;26.10;55.70;;;;;;6246494;27;20757;-42
2022/08/03 15:49:31;;;;;;;0.20;0.20;;;26.10;55.80;;;;;;6265389;27;20162;-43
2022/08/03 15:52:35;;;;;;;0.30;0.30;;;26.20;56.20;;;;;;6266044;27;21315;-46
2022/08/03 15:55:37;;;;;;;0.47;0.30;;;26.10;56.40;;;;;;6255137;27;20049;-44
2022/08/03 15:58:39;;;;;;;0.35;0.30;;;26.20;56.80;;;;;;6268005;27;20043;-44
2022/08/03 16:02:04;;;;;;;1.83;0.30;;;26.10;57.10;;;;;;6251647;27;21165;-41
2022/08/03 16:05:06;;;;;;;0.22;0.20;;;26.20;57.50;;;;;;6271149;27;20980;-42
2022/08/03 16:08:07;;;;;;;0.40;0.30;;;26.20;57.90;;;;;;6285135;27;20043;-43
2022/08/03 16:11:15;;;;;;;0.38;0.30;;;26.40;58.40;;;;;;6283388;27;20050;-40
2022/08/03 16:14:17;;;;;;;0.40;0.30;;;26.20;58.50;;;;;;6290432;27;20186;-40
2022/08/03 16:17:39;;;;;;;1.80;0.30;;;26.20;58.70;;;;;;6279130;27;20125;-40
2022/08/03 16:20:41;;;;;;;0.43;0.30;;;26.20;59.00;;;;;;6257321;27;20047;-42